Portada
METAR-TAF:

METAR-TAF

Aeroports :

Salinas, Equador

latitud: 02-12-18S, longitud: 080-59-20W, altitud: 5 m

Observació

L'informe es va fer fa 4 hores i 57 minuts, a les 03:00 UTC
Vent 12 kt del Oest/Sud-Oest
Temperatura 23°C
Humitat 83%
Pressió 1016 hPa
Visibilitat 10 km o més
Escasses núvols a una alçada de 1300 ft
Cel cobert a una alçada de 2000 ft

METAR: SESA 150300Z 25012KT 9999 FEW013 OVC020 23/20 Q1016 RMK A2997

Hora: 02:57 (07:57 UTC)


TAF: manca

Observacions i pronòstics meteorològics de més de 4000 aeroports (METAR i TAF).

Les estacions disponibles són els punts grocs i vermells al mapa.

Posi el ratolí al punt desitjat per veure el nom de l'estació.

Feu clic per veure les observacions i els pronòstics meteorològics.

Per canviar el mapa: feu clic els botons verds amb una creu de color negre per apropar; al botó verd amb un guió per allunyar la imatge; o en les fletxes verdes per a mapes adjacents.


METAR-TAF: